sensor_id;sensor_type;location;lat;lon;timestamp;temperature;humidity
5280;DHT22;2663;53.588;10.010;2023-07-20T00:02:19;16.60;99.90
5280;DHT22;2663;53.588;10.010;2023-07-20T00:04:46;16.60;99.90
5280;DHT22;2663;53.588;10.010;2023-07-20T00:07:12;16.60;99.90
5280;DHT22;2663;53.588;10.010;2023-07-20T00:09:39;16.60;99.90
5280;DHT22;2663;53.588;10.010;2023-07-20T00:12:06;16.60;99.90
5280;DHT22;2663;53.588;10.010;2023-07-20T00:14:33;16.70;99.90
5280;DHT22;2663;53.588;10.010;2023-07-20T00:17:00;16.70;99.90
5280;DHT22;2663;53.588;10.010;2023-07-20T00:19:27;16.80;99.90
5280;DHT22;2663;53.588;10.010;2023-07-20T00:21:54;16.80;99.90
5280;DHT22;2663;53.588;10.010;2023-07-20T00:24:21;16.80;99.90
5280;DHT22;2663;53.588;10.010;2023-07-20T00:26:48;16.90;99.90
5280;DHT22;2663;53.588;10.010;2023-07-20T00:29:15;16.90;99.90
5280;DHT22;2663;53.588;10.010;2023-07-20T00:31:42;16.90;99.90
5280;DHT22;2663;53.588;10.010;2023-07-20T00:34:10;16.80;99.90
5280;DHT22;2663;53.588;10.010;2023-07-20T00:36:37;16.80;99.90
5280;DHT22;2663;53.588;10.010;2023-07-20T00:39:04;16.80;99.90
5280;DHT22;2663;53.588;10.010;2023-07-20T00:41:31;16.70;99.90
5280;DHT22;2663;53.588;10.010;2023-07-20T00:43:59;16.80;99.90
5280;DHT22;2663;53.588;10.010;2023-07-20T00:46:25;15.60;99.90
5280;DHT22;2663;53.588;10.010;2023-07-20T00:48:53;16.80;99.90
5280;DHT22;2663;53.588;10.010;2023-07-20T00:51:21;16.80;99.90
5280;DHT22;2663;53.588;10.010;2023-07-20T00:53:49;16.60;99.90
5280;DHT22;2663;53.588;10.010;2023-07-20T00:56:16;16.60;99.90
5280;DHT22;2663;53.588;10.010;2023-07-20T00:58:43;16.50;99.90
5280;DHT22;2663;53.588;10.010;2023-07-20T01:01:10;16.30;99.90
5280;DHT22;2663;53.588;10.010;2023-07-20T01:03:37;16.30;99.90
5280;DHT22;2663;53.588;10.010;2023-07-20T01:06:22;16.20;99.90
5280;DHT22;2663;53.588;10.010;2023-07-20T01:08:57;16.30;99.90
5280;DHT22;2663;53.588;10.010;2023-07-20T01:14:18;16.30;99.90
5280;DHT22;2663;53.588;10.010;2023-07-20T01:16:46;16.20;99.90
5280;DHT22;2663;53.588;10.010;2023-07-20T01:19:14;16.30;99.90
5280;DHT22;2663;53.588;10.010;2023-07-20T01:22:00;16.20;99.90
5280;DHT22;2663;53.588;10.010;2023-07-20T01:27:57;16.20;99.90
5280;DHT22;2663;53.588;10.010;2023-07-20T01:32:59;16.20;99.90
5280;DHT22;2663;53.588;10.010;2023-07-20T01:35:29;16.20;99.90
5280;DHT22;2663;53.588;10.010;2023-07-20T01:37:56;16.20;99.90
5280;DHT22;2663;53.588;10.010;2023-07-20T01:40:25;16.20;99.90
5280;DHT22;2663;53.588;10.010;2023-07-20T01:42:52;16.20;99.90
5280;DHT22;2663;53.588;10.010;2023-07-20T01:45:19;16.20;99.90
5280;DHT22;2663;53.588;10.010;2023-07-20T01:47:46;16.30;99.90
5280;DHT22;2663;53.588;10.010;2023-07-20T01:50:13;16.20;99.90
5280;DHT22;2663;53.588;10.010;2023-07-20T01:52:39;16.20;99.90
5280;DHT22;2663;53.588;10.010;2023-07-20T01:55:06;16.30;99.90
5280;DHT22;2663;53.588;10.010;2023-07-20T01:57:33;16.30;99.90
5280;DHT22;2663;53.588;10.010;2023-07-20T02:00:00;16.30;99.90
5280;DHT22;2663;53.588;10.010;2023-07-20T02:02:27;16.20;99.90
5280;DHT22;2663;53.588;10.010;2023-07-20T02:04:55;16.30;99.90
5280;DHT22;2663;53.588;10.010;2023-07-20T02:07:21;16.30;99.90
5280;DHT22;2663;53.588;10.010;2023-07-20T02:09:48;16.20;99.90
5280;DHT22;2663;53.588;10.010;2023-07-20T02:12:15;16.20;99.90
5280;DHT22;2663;53.588;10.010;2023-07-20T02:14:42;16.20;99.90
5280;DHT22;2663;53.588;10.010;2023-07-20T02:17:08;16.30;99.90
5280;DHT22;2663;53.588;10.010;2023-07-20T02:19:37;16.40;99.90
5280;DHT22;2663;53.588;10.010;2023-07-20T02:22:05;16.30;99.90
5280;DHT22;2663;53.588;10.010;2023-07-20T02:24:33;16.20;99.90
5280;DHT22;2663;53.588;10.010;2023-07-20T02:27:00;16.20;99.90
5280;DHT22;2663;53.588;10.010;2023-07-20T02:29:27;16.20;99.90
5280;DHT22;2663;53.588;10.010;2023-07-20T02:31:54;16.20;99.90
5280;DHT22;2663;53.588;10.010;2023-07-20T02:34:20;16.20;99.90
5280;DHT22;2663;53.588;10.010;2023-07-20T02:36:47;16.20;99.90
5280;DHT22;2663;53.588;10.010;2023-07-20T02:39:14;16.10;99.90
5280;DHT22;2663;53.588;10.010;2023-07-20T02:41:41;16.10;99.90
5280;DHT22;2663;53.588;10.010;2023-07-20T02:44:08;16.10;99.90
5280;DHT22;2663;53.588;10.010;2023-07-20T02:46:35;16.10;99.90
5280;DHT22;2663;53.588;10.010;2023-07-20T02:49:02;16.10;99.90
5280;DHT22;2663;53.588;10.010;2023-07-20T02:51:28;16.20;99.90
5280;DHT22;2663;53.588;10.010;2023-07-20T02:53:55;16.10;99.90
5280;DHT22;2663;53.588;10.010;2023-07-20T02:56:22;16.10;99.90
5280;DHT22;2663;53.588;10.010;2023-07-20T02:58:50;17.10;99.90
5280;DHT22;2663;53.588;10.010;2023-07-20T03:01:17;16.00;99.90
5280;DHT22;2663;53.588;10.010;2023-07-20T03:03:44;16.00;99.90
5280;DHT22;2663;53.588;10.010;2023-07-20T03:06:14;15.90;99.90
5280;DHT22;2663;53.588;10.010;2023-07-20T03:08:42;15.90;99.90
5280;DHT22;2663;53.588;10.010;2023-07-20T03:11:14;15.90;99.90
5280;DHT22;2663;53.588;10.010;2023-07-20T03:13:44;15.90;99.90
5280;DHT22;2663;53.588;10.010;2023-07-20T03:16:15;15.90;99.90
5280;DHT22;2663;53.588;10.010;2023-07-20T03:18:42;15.90;99.90
5280;DHT22;2663;53.588;10.010;2023-07-20T03:21:10;15.90;99.90
5280;DHT22;2663;53.588;10.010;2023-07-20T03:23:40;15.90;99.90
5280;DHT22;2663;53.588;10.010;2023-07-20T03:26:08;15.80;99.90
5280;DHT22;2663;53.588;10.010;2023-07-20T03:28:36;15.80;99.90
5280;DHT22;2663;53.588;10.010;2023-07-20T03:31:05;15.70;99.90
5280;DHT22;2663;53.588;10.010;2023-07-20T03:33:32;15.70;99.90
5280;DHT22;2663;53.588;10.010;2023-07-20T03:35:59;15.70;99.90
5280;DHT22;2663;53.588;10.010;2023-07-20T03:38:26;15.60;99.90
5280;DHT22;2663;53.588;10.010;2023-07-20T03:40:58;15.60;99.90
5280;DHT22;2663;53.588;10.010;2023-07-20T03:43:27;15.60;99.90
5280;DHT22;2663;53.588;10.010;2023-07-20T03:45:54;15.70;99.90
5280;DHT22;2663;53.588;10.010;2023-07-20T03:48:22;15.80;99.90
5280;DHT22;2663;53.588;10.010;2023-07-20T03:50:51;15.90;99.90
5280;DHT22;2663;53.588;10.010;2023-07-20T03:53:19;15.90;99.90
5280;DHT22;2663;53.588;10.010;2023-07-20T03:55:50;16.00;99.90
5280;DHT22;2663;53.588;10.010;2023-07-20T03:58:18;16.10;99.90
5280;DHT22;2663;53.588;10.010;2023-07-20T04:00:49;16.10;99.90
5280;DHT22;2663;53.588;10.010;2023-07-20T04:03:20;16.10;99.90
5280;DHT22;2663;53.588;10.010;2023-07-20T04:05:47;16.00;99.90
5280;DHT22;2663;53.588;10.010;2023-07-20T04:08:14;16.00;99.90
5280;DHT22;2663;53.588;10.010;2023-07-20T04:10:44;16.10;99.90
5280;DHT22;2663;53.588;10.010;2023-07-20T04:13:11;16.20;99.90
5280;DHT22;2663;53.588;10.010;2023-07-20T04:15:38;16.10;99.90
5280;DHT22;2663;53.588;10.010;2023-07-20T04:18:05;16.00;99.90
5280;DHT22;2663;53.588;10.010;2023-07-20T04:20:31;16.00;99.90
5280;DHT22;2663;53.588;10.010;2023-07-20T04:22:58;16.10;99.90
5280;DHT22;2663;53.588;10.010;2023-07-20T04:25:25;16.10;99.90
5280;DHT22;2663;53.588;10.010;2023-07-20T04:27:52;16.20;99.90
5280;DHT22;2663;53.588;10.010;2023-07-20T04:30:20;16.10;99.90
5280;DHT22;2663;53.588;10.010;2023-07-20T04:32:48;16.00;99.90
5280;DHT22;2663;53.588;10.010;2023-07-20T04:38:14;16.00;99.90
5280;DHT22;2663;53.588;10.010;2023-07-20T04:40:49;16.00;99.90
5280;DHT22;2663;53.588;10.010;2023-07-20T04:43:18;16.00;99.90
5280;DHT22;2663;53.588;10.010;2023-07-20T04:45:45;16.10;99.90
5280;DHT22;2663;53.588;10.010;2023-07-20T04:48:13;16.10;99.90
5280;DHT22;2663;53.588;10.010;2023-07-20T04:50:43;16.10;99.90
5280;DHT22;2663;53.588;10.010;2023-07-20T04:53:13;16.20;99.90
5280;DHT22;2663;53.588;10.010;2023-07-20T04:55:40;16.20;99.90
5280;DHT22;2663;53.588;10.010;2023-07-20T04:58:07;16.20;99.90
5280;DHT22;2663;53.588;10.010;2023-07-20T05:00:34;15.60;99.90
5280;DHT22;2663;53.588;10.010;2023-07-20T05:03:01;16.30;99.90
5280;DHT22;2663;53.588;10.010;2023-07-20T05:05:28;16.30;99.90
5280;DHT22;2663;53.588;10.010;2023-07-20T05:07:55;16.20;99.90
5280;DHT22;2663;53.588;10.010;2023-07-20T05:10:21;16.20;99.90
5280;DHT22;2663;53.588;10.010;2023-07-20T05:12:48;16.20;99.90
5280;DHT22;2663;53.588;10.010;2023-07-20T05:15:15;16.30;99.90
5280;DHT22;2663;53.588;10.010;2023-07-20T05:17:42;16.40;99.90
5280;DHT22;2663;53.588;10.010;2023-07-20T05:20:09;16.50;99.90
5280;DHT22;2663;53.588;10.010;2023-07-20T05:22:42;16.50;99.90
5280;DHT22;2663;53.588;10.010;2023-07-20T05:25:10;17.50;99.90
5280;DHT22;2663;53.588;10.010;2023-07-20T05:27:38;16.20;99.90
5280;DHT22;2663;53.588;10.010;2023-07-20T05:30:07;16.20;99.90
5280;DHT22;2663;53.588;10.010;2023-07-20T05:32:34;16.30;99.90
5280;DHT22;2663;53.588;10.010;2023-07-20T05:35:01;16.50;99.90
5280;DHT22;2663;53.588;10.010;2023-07-20T05:37:28;16.50;99.90
5280;DHT22;2663;53.588;10.010;2023-07-20T05:39:54;16.60;99.90
5280;DHT22;2663;53.588;10.010;2023-07-20T05:42:22;16.70;99.90
5280;DHT22;2663;53.588;10.010;2023-07-20T05:44:48;16.70;99.90
5280;DHT22;2663;53.588;10.010;2023-07-20T05:47:16;16.60;99.90
5280;DHT22;2663;53.588;10.010;2023-07-20T05:49:43;16.70;99.90
5280;DHT22;2663;53.588;10.010;2023-07-20T05:52:10;16.60;99.90
5280;DHT22;2663;53.588;10.010;2023-07-20T05:54:36;16.60;99.90
5280;DHT22;2663;53.588;10.010;2023-07-20T05:57:04;16.60;99.90
5280;DHT22;2663;53.588;10.010;2023-07-20T05:59:31;16.80;99.90
5280;DHT22;2663;53.588;10.010;2023-07-20T06:01:58;16.90;99.90
5280;DHT22;2663;53.588;10.010;2023-07-20T06:04:25;18.40;99.90
5280;DHT22;2663;53.588;10.010;2023-07-20T06:06:52;16.70;99.90
5280;DHT22;2663;53.588;10.010;2023-07-20T06:09:18;16.80;99.90
5280;DHT22;2663;53.588;10.010;2023-07-20T06:11:45;16.90;99.90
5280;DHT22;2663;53.588;10.010;2023-07-20T06:14:12;16.70;99.90
5280;DHT22;2663;53.588;10.010;2023-07-20T06:16:39;16.80;99.90
5280;DHT22;2663;53.588;10.010;2023-07-20T06:19:06;16.80;99.90
5280;DHT22;2663;53.588;10.010;2023-07-20T06:21:33;16.90;99.90
5280;DHT22;2663;53.588;10.010;2023-07-20T06:23:59;17.10;99.90
5280;DHT22;2663;53.588;10.010;2023-07-20T06:26:26;16.80;99.90
5280;DHT22;2663;53.588;10.010;2023-07-20T06:28:53;17.10;99.90
5280;DHT22;2663;53.588;10.010;2023-07-20T06:31:19;17.10;99.90
5280;DHT22;2663;53.588;10.010;2023-07-20T06:33:46;17.10;99.90
5280;DHT22;2663;53.588;10.010;2023-07-20T06:36:13;17.20;99.90
5280;DHT22;2663;53.588;10.010;2023-07-20T06:38:40;17.40;99.90
5280;DHT22;2663;53.588;10.010;2023-07-20T06:41:07;17.30;99.90
5280;DHT22;2663;53.588;10.010;2023-07-20T06:43:36;17.30;99.90
5280;DHT22;2663;53.588;10.010;2023-07-20T06:46:06;17.30;99.90
5280;DHT22;2663;53.588;10.010;2023-07-20T06:48:32;17.40;99.90
5280;DHT22;2663;53.588;10.010;2023-07-20T06:51:20;17.50;99.90
5280;DHT22;2663;53.588;10.010;2023-07-20T06:53:47;17.20;99.90
5280;DHT22;2663;53.588;10.010;2023-07-20T06:56:14;17.20;99.90
5280;DHT22;2663;53.588;10.010;2023-07-20T06:58:40;17.20;99.90
5280;DHT22;2663;53.588;10.010;2023-07-20T07:01:08;17.40;99.90
5280;DHT22;2663;53.588;10.010;2023-07-20T07:03:35;17.40;99.90
5280;DHT22;2663;53.588;10.010;2023-07-20T07:06:03;17.40;99.90
5280;DHT22;2663;53.588;10.010;2023-07-20T07:08:30;17.30;99.90
5280;DHT22;2663;53.588;10.010;2023-07-20T07:10:57;17.20;99.90
5280;DHT22;2663;53.588;10.010;2023-07-20T07:13:24;17.20;99.90
5280;DHT22;2663;53.588;10.010;2023-07-20T07:15:51;17.40;99.90
5280;DHT22;2663;53.588;10.010;2023-07-20T07:18:18;17.40;99.90
5280;DHT22;2663;53.588;10.010;2023-07-20T07:20:51;17.50;99.90
5280;DHT22;2663;53.588;10.010;2023-07-20T07:23:18;17.50;99.90
5280;DHT22;2663;53.588;10.010;2023-07-20T07:25:45;17.70;99.90
5280;DHT22;2663;53.588;10.010;2023-07-20T07:28:13;17.90;99.90
5280;DHT22;2663;53.588;10.010;2023-07-20T07:30:40;18.00;99.90
5280;DHT22;2663;53.588;10.010;2023-07-20T07:33:07;18.00;99.90
5280;DHT22;2663;53.588;10.010;2023-07-20T07:35:33;17.80;99.90
5280;DHT22;2663;53.588;10.010;2023-07-20T07:38:00;17.80;99.90
5280;DHT22;2663;53.588;10.010;2023-07-20T07:40:47;17.70;99.90
5280;DHT22;2663;53.588;10.010;2023-07-20T07:43:13;17.40;99.90
5280;DHT22;2663;53.588;10.010;2023-07-20T07:45:40;17.20;99.90
5280;DHT22;2663;53.588;10.010;2023-07-20T07:48:08;17.00;99.90
5280;DHT22;2663;53.588;10.010;2023-07-20T07:50:38;16.90;99.90
5280;DHT22;2663;53.588;10.010;2023-07-20T07:53:07;16.90;99.90
5280;DHT22;2663;53.588;10.010;2023-07-20T07:55:35;17.10;99.90
5280;DHT22;2663;53.588;10.010;2023-07-20T07:58:02;17.40;99.90
5280;DHT22;2663;53.588;10.010;2023-07-20T08:00:28;17.60;99.90
5280;DHT22;2663;53.588;10.010;2023-07-20T08:02:55;17.80;99.90
5280;DHT22;2663;53.588;10.010;2023-07-20T08:05:22;17.80;99.90
5280;DHT22;2663;53.588;10.010;2023-07-20T08:07:49;17.60;99.90
5280;DHT22;2663;53.588;10.010;2023-07-20T08:10:15;17.60;99.90
5280;DHT22;2663;53.588;10.010;2023-07-20T08:12:42;17.60;99.90
5280;DHT22;2663;53.588;10.010;2023-07-20T08:15:11;17.80;99.90
5280;DHT22;2663;53.588;10.010;2023-07-20T08:17:38;17.90;99.90
5280;DHT22;2663;53.588;10.010;2023-07-20T08:20:05;18.00;99.90
5280;DHT22;2663;53.588;10.010;2023-07-20T08:22:33;18.10;99.90
5280;DHT22;2663;53.588;10.010;2023-07-20T08:24:59;18.30;99.90
5280;DHT22;2663;53.588;10.010;2023-07-20T08:27:26;18.10;99.90
5280;DHT22;2663;53.588;10.010;2023-07-20T08:29:53;18.20;99.90
5280;DHT22;2663;53.588;10.010;2023-07-20T08:32:20;18.00;99.90
5280;DHT22;2663;53.588;10.010;2023-07-20T08:34:46;17.90;99.90
5280;DHT22;2663;53.588;10.010;2023-07-20T08:37:13;17.80;99.90
5280;DHT22;2663;53.588;10.010;2023-07-20T08:39:40;18.10;99.90
5280;DHT22;2663;53.588;10.010;2023-07-20T08:42:06;18.20;99.90
5280;DHT22;2663;53.588;10.010;2023-07-20T08:44:34;18.40;99.90
5280;DHT22;2663;53.588;10.010;2023-07-20T08:47:02;18.50;99.90
5280;DHT22;2663;53.588;10.010;2023-07-20T08:49:34;18.30;99.90
5280;DHT22;2663;53.588;10.010;2023-07-20T08:52:01;18.10;99.90
5280;DHT22;2663;53.588;10.010;2023-07-20T08:54:30;17.70;99.90
5280;DHT22;2663;53.588;10.010;2023-07-20T08:57:04;17.30;99.90
5280;DHT22;2663;53.588;10.010;2023-07-20T08:59:31;17.10;99.90
5280;DHT22;2663;53.588;10.010;2023-07-20T09:02:00;17.10;99.90
5280;DHT22;2663;53.588;10.010;2023-07-20T09:04:27;17.30;99.90
5280;DHT22;2663;53.588;10.010;2023-07-20T09:06:53;17.30;99.90
5280;DHT22;2663;53.588;10.010;2023-07-20T09:09:20;17.50;99.90
5280;DHT22;2663;53.588;10.010;2023-07-20T09:11:51;17.90;99.90
5280;DHT22;2663;53.588;10.010;2023-07-20T09:14:18;18.00;99.90
5280;DHT22;2663;53.588;10.010;2023-07-20T09:16:55;18.10;99.90
5280;DHT22;2663;53.588;10.010;2023-07-20T09:19:22;18.40;99.90
5280;DHT22;2663;53.588;10.010;2023-07-20T09:21:51;18.40;99.90
5280;DHT22;2663;53.588;10.010;2023-07-20T09:24:18;18.40;99.90
5280;DHT22;2663;53.588;10.010;2023-07-20T09:26:47;18.40;99.90
5280;DHT22;2663;53.588;10.010;2023-07-20T09:29:20;18.30;99.90
5280;DHT22;2663;53.588;10.010;2023-07-20T09:32:01;18.30;99.90
5280;DHT22;2663;53.588;10.010;2023-07-20T09:34:32;17.90;99.90
5280;DHT22;2663;53.588;10.010;2023-07-20T09:37:02;17.60;99.90
5280;DHT22;2663;53.588;10.010;2023-07-20T09:39:29;17.50;99.90
5280;DHT22;2663;53.588;10.010;2023-07-20T09:42:00;17.40;99.90
5280;DHT22;2663;53.588;10.010;2023-07-20T09:44:31;17.30;99.90
5280;DHT22;2663;53.588;10.010;2023-07-20T09:47:03;17.30;99.90
5280;DHT22;2663;53.588;10.010;2023-07-20T09:49:31;17.40;99.90
5280;DHT22;2663;53.588;10.010;2023-07-20T09:52:18;17.50;99.90
5280;DHT22;2663;53.588;10.010;2023-07-20T09:54:49;17.80;99.90
5280;DHT22;2663;53.588;10.010;2023-07-20T09:57:16;17.80;99.90
5280;DHT22;2663;53.588;10.010;2023-07-20T09:59:43;17.70;99.90
5280;DHT22;2663;53.588;10.010;2023-07-20T10:02:21;17.80;99.90
5280;DHT22;2663;53.588;10.010;2023-07-20T10:04:52;17.90;99.90
5280;DHT22;2663;53.588;10.010;2023-07-20T10:22:06;18.80;99.90
5280;DHT22;2663;53.588;10.010;2023-07-20T10:24:36;18.80;99.90
5280;DHT22;2663;53.588;10.010;2023-07-20T10:27:04;18.90;99.90
5280;DHT22;2663;53.588;10.010;2023-07-20T10:29:32;19.00;99.90
5280;DHT22;2663;53.588;10.010;2023-07-20T10:32:00;19.10;99.90
5280;DHT22;2663;53.588;10.010;2023-07-20T10:34:28;18.90;99.90
5280;DHT22;2663;53.588;10.010;2023-07-20T10:36:55;18.60;99.90
5280;DHT22;2663;53.588;10.010;2023-07-20T10:39:26;18.50;99.90
5280;DHT22;2663;53.588;10.010;2023-07-20T10:42:01;18.40;99.90
5280;DHT22;2663;53.588;10.010;2023-07-20T10:44:30;18.50;99.90
5280;DHT22;2663;53.588;10.010;2023-07-20T10:47:02;18.70;99.90
5280;DHT22;2663;53.588;10.010;2023-07-20T10:49:33;18.80;99.90
5280;DHT22;2663;53.588;10.010;2023-07-20T10:52:04;19.00;99.90
5280;DHT22;2663;53.588;10.010;2023-07-20T10:57:29;18.90;99.90
5280;DHT22;2663;53.588;10.010;2023-07-20T11:00:08;18.30;99.90
5280;DHT22;2663;53.588;10.010;2023-07-20T11:02:44;18.20;99.90
5280;DHT22;2663;53.588;10.010;2023-07-20T11:05:34;18.10;99.90
5280;DHT22;2663;53.588;10.010;2023-07-20T11:08:08;18.10;99.90
5280;DHT22;2663;53.588;10.010;2023-07-20T11:10:35;18.40;99.90
5280;DHT22;2663;53.588;10.010;2023-07-20T11:13:21;18.50;99.90
5280;DHT22;2663;53.588;10.010;2023-07-20T11:16:02;18.30;99.90
5280;DHT22;2663;53.588;10.010;2023-07-20T11:18:30;18.00;99.90
5280;DHT22;2663;53.588;10.010;2023-07-20T11:20:59;17.90;99.90
5280;DHT22;2663;53.588;10.010;2023-07-20T11:23:26;17.80;99.90
5280;DHT22;2663;53.588;10.010;2023-07-20T11:25:54;18.00;99.90
5280;DHT22;2663;53.588;10.010;2023-07-20T11:28:20;18.30;99.90
5280;DHT22;2663;53.588;10.010;2023-07-20T11:30:52;18.60;99.90
5280;DHT22;2663;53.588;10.010;2023-07-20T11:33:19;18.60;99.90
5280;DHT22;2663;53.588;10.010;2023-07-20T11:35:46;18.80;99.90
5280;DHT22;2663;53.588;10.010;2023-07-20T11:38:14;18.50;99.90
5280;DHT22;2663;53.588;10.010;2023-07-20T11:40:44;18.30;99.90
5280;DHT22;2663;53.588;10.010;2023-07-20T11:43:12;18.50;99.90
5280;DHT22;2663;53.588;10.010;2023-07-20T11:45:42;18.60;99.90
5280;DHT22;2663;53.588;10.010;2023-07-20T11:48:17;18.60;99.90
5280;DHT22;2663;53.588;10.010;2023-07-20T11:50:44;18.60;99.90
5280;DHT22;2663;53.588;10.010;2023-07-20T11:53:11;18.80;99.90
5280;DHT22;2663;53.588;10.010;2023-07-20T11:55:39;19.00;99.90
5280;DHT22;2663;53.588;10.010;2023-07-20T11:58:08;19.20;99.90
5280;DHT22;2663;53.588;10.010;2023-07-20T12:00:36;19.30;99.90
5280;DHT22;2663;53.588;10.010;2023-07-20T12:03:06;19.20;99.90
5280;DHT22;2663;53.588;10.010;2023-07-20T12:05:34;19.20;99.90
5280;DHT22;2663;53.588;10.010;2023-07-20T12:08:21;19.30;99.90
5280;DHT22;2663;53.588;10.010;2023-07-20T12:10:48;19.30;99.90
5280;DHT22;2663;53.588;10.010;2023-07-20T12:13:15;19.50;99.90
5280;DHT22;2663;53.588;10.010;2023-07-20T12:15:43;19.60;99.90
5280;DHT22;2663;53.588;10.010;2023-07-20T12:18:10;19.60;99.90
5280;DHT22;2663;53.588;10.010;2023-07-20T12:20:37;19.70;99.90
5280;DHT22;2663;53.588;10.010;2023-07-20T12:23:11;19.80;99.90
5280;DHT22;2663;53.588;10.010;2023-07-20T12:25:40;19.90;99.90
5280;DHT22;2663;53.588;10.010;2023-07-20T12:28:09;19.90;99.90
5280;DHT22;2663;53.588;10.010;2023-07-20T12:30:40;19.80;99.90
5280;DHT22;2663;53.588;10.010;2023-07-20T12:33:07;19.60;99.90
5280;DHT22;2663;53.588;10.010;2023-07-20T12:35:34;19.70;99.90
5280;DHT22;2663;53.588;10.010;2023-07-20T12:38:01;19.60;99.90
5280;DHT22;2663;53.588;10.010;2023-07-20T12:40:28;19.70;99.90
5280;DHT22;2663;53.588;10.010;2023-07-20T12:42:55;19.40;99.90
5280;DHT22;2663;53.588;10.010;2023-07-20T12:45:22;19.30;99.90
5280;DHT22;2663;53.588;10.010;2023-07-20T12:47:49;19.40;99.90
5280;DHT22;2663;53.588;10.010;2023-07-20T12:50:16;19.30;99.90
5280;DHT22;2663;53.588;10.010;2023-07-20T12:52:43;19.30;99.90
5280;DHT22;2663;53.588;10.010;2023-07-20T12:55:10;19.30;99.90
5280;DHT22;2663;53.588;10.010;2023-07-20T12:57:37;19.50;99.90
5280;DHT22;2663;53.588;10.010;2023-07-20T13:00:06;19.70;99.90
5280;DHT22;2663;53.588;10.010;2023-07-20T13:02:38;19.80;99.90
5280;DHT22;2663;53.588;10.010;2023-07-20T13:05:05;19.80;99.90
5280;DHT22;2663;53.588;10.010;2023-07-20T13:07:39;19.90;99.90
5280;DHT22;2663;53.588;10.010;2023-07-20T13:10:10;19.90;99.90
5280;DHT22;2663;53.588;10.010;2023-07-20T13:12:37;20.20;99.10
5280;DHT22;2663;53.588;10.010;2023-07-20T13:15:08;20.40;97.80
5280;DHT22;2663;53.588;10.010;2023-07-20T13:17:36;20.30;96.50
5280;DHT22;2663;53.588;10.010;2023-07-20T13:20:05;20.20;96.80
5280;DHT22;2663;53.588;10.010;2023-07-20T13:22:33;20.20;96.60
5280;DHT22;2663;53.588;10.010;2023-07-20T13:25:00;20.30;96.50
5280;DHT22;2663;53.588;10.010;2023-07-20T13:27:27;20.30;95.90
5280;DHT22;2663;53.588;10.010;2023-07-20T13:29:54;20.20;96.30
5280;DHT22;2663;53.588;10.010;2023-07-20T13:32:22;20.30;96.30
5280;DHT22;2663;53.588;10.010;2023-07-20T13:34:50;20.30;96.30
5280;DHT22;2663;53.588;10.010;2023-07-20T13:37:17;20.30;96.40
5280;DHT22;2663;53.588;10.010;2023-07-20T13:39:44;20.30;96.20
5280;DHT22;2663;53.588;10.010;2023-07-20T13:42:11;21.60;96.40
5280;DHT22;2663;53.588;10.010;2023-07-20T13:44:39;20.40;96.00
5280;DHT22;2663;53.588;10.010;2023-07-20T13:47:06;20.50;96.40
5280;DHT22;2663;53.588;10.010;2023-07-20T13:49:35;20.40;96.10
5280;DHT22;2663;53.588;10.010;2023-07-20T13:52:11;20.30;96.70
5280;DHT22;2663;53.588;10.010;2023-07-20T13:54:41;20.40;97.00
5280;DHT22;2663;53.588;10.010;2023-07-20T13:57:14;20.10;96.70
5280;DHT22;2663;53.588;10.010;2023-07-20T13:59:42;19.90;96.70
5280;DHT22;2663;53.588;10.010;2023-07-20T14:02:09;20.10;96.40
5280;DHT22;2663;53.588;10.010;2023-07-20T14:04:39;20.20;96.40
5280;DHT22;2663;53.588;10.010;2023-07-20T14:07:06;20.20;96.30
5280;DHT22;2663;53.588;10.010;2023-07-20T14:09:34;20.10;96.20
5280;DHT22;2663;53.588;10.010;2023-07-20T14:12:01;20.30;96.60
5280;DHT22;2663;53.588;10.010;2023-07-20T14:14:31;20.50;96.60
5280;DHT22;2663;53.588;10.010;2023-07-20T14:16:57;20.60;96.50
5280;DHT22;2663;53.588;10.010;2023-07-20T14:19:24;20.30;96.90
5280;DHT22;2663;53.588;10.010;2023-07-20T14:21:51;20.20;97.50
5280;DHT22;2663;53.588;10.010;2023-07-20T14:24:17;19.90;96.90
5280;DHT22;2663;53.588;10.010;2023-07-20T14:26:45;19.70;97.60
5280;DHT22;2663;53.588;10.010;2023-07-20T14:29:17;19.90;97.20
5280;DHT22;2663;53.588;10.010;2023-07-20T14:31:45;20.00;94.60
5280;DHT22;2663;53.588;10.010;2023-07-20T14:34:14;20.10;94.70
5280;DHT22;2663;53.588;10.010;2023-07-20T14:36:41;20.30;94.80
5280;DHT22;2663;53.588;10.010;2023-07-20T14:39:08;20.50;94.60
5280;DHT22;2663;53.588;10.010;2023-07-20T14:41:35;20.40;93.60
5280;DHT22;2663;53.588;10.010;2023-07-20T14:44:02;20.50;94.10
5280;DHT22;2663;53.588;10.010;2023-07-20T14:46:28;20.50;94.50
5280;DHT22;2663;53.588;10.010;2023-07-20T14:48:56;20.30;94.90
5280;DHT22;2663;53.588;10.010;2023-07-20T14:51:23;20.30;95.30
5280;DHT22;2663;53.588;10.010;2023-07-20T14:53:49;20.10;95.80
5280;DHT22;2663;53.588;10.010;2023-07-20T14:56:16;20.10;96.10
5280;DHT22;2663;53.588;10.010;2023-07-20T14:58:43;20.30;96.10
5280;DHT22;2663;53.588;10.010;2023-07-20T15:01:09;20.60;95.50
5280;DHT22;2663;53.588;10.010;2023-07-20T15:03:36;20.20;95.40
5280;DHT22;2663;53.588;10.010;2023-07-20T15:06:03;20.00;95.90
5280;DHT22;2663;53.588;10.010;2023-07-20T15:08:30;20.30;96.00
5280;DHT22;2663;53.588;10.010;2023-07-20T15:10:57;20.30;95.70
5280;DHT22;2663;53.588;10.010;2023-07-20T15:13:23;20.10;95.90
5280;DHT22;2663;53.588;10.010;2023-07-20T15:15:50;20.00;95.70
5280;DHT22;2663;53.588;10.010;2023-07-20T15:18:17;20.00;96.00
5280;DHT22;2663;53.588;10.010;2023-07-20T15:20:43;20.10;96.20
5280;DHT22;2663;53.588;10.010;2023-07-20T15:23:10;20.10;96.70
5280;DHT22;2663;53.588;10.010;2023-07-20T15:25:37;20.20;96.70
5280;DHT22;2663;53.588;10.010;2023-07-20T15:28:04;20.20;96.90
5280;DHT22;2663;53.588;10.010;2023-07-20T15:30:31;20.40;96.30
5280;DHT22;2663;53.588;10.010;2023-07-20T15:33:01;20.70;95.60
5280;DHT22;2663;53.588;10.010;2023-07-20T15:35:30;20.80;95.50
5280;DHT22;2663;53.588;10.010;2023-07-20T15:37:57;20.30;94.70
5280;DHT22;2663;53.588;10.010;2023-07-20T15:40:25;21.10;94.00
5280;DHT22;2663;53.588;10.010;2023-07-20T15:42:52;21.00;94.00
5280;DHT22;2663;53.588;10.010;2023-07-20T15:45:21;21.00;93.40
5280;DHT22;2663;53.588;10.010;2023-07-20T15:47:47;20.90;93.40
5280;DHT22;2663;53.588;10.010;2023-07-20T15:50:14;21.10;93.60
5280;DHT22;2663;53.588;10.010;2023-07-20T15:52:42;21.20;93.20
5280;DHT22;2663;53.588;10.010;2023-07-20T15:55:09;21.20;93.60
5280;DHT22;2663;53.588;10.010;2023-07-20T15:57:36;21.10;93.60
5280;DHT22;2663;53.588;10.010;2023-07-20T16:00:03;21.20;93.60
5280;DHT22;2663;53.588;10.010;2023-07-20T16:02:36;21.40;93.30
5280;DHT22;2663;53.588;10.010;2023-07-20T16:05:05;21.70;92.80
5280;DHT22;2663;53.588;10.010;2023-07-20T16:07:35;21.80;92.90
5280;DHT22;2663;53.588;10.010;2023-07-20T16:10:03;21.80;93.10
5280;DHT22;2663;53.588;10.010;2023-07-20T16:12:29;22.00;92.90
5280;DHT22;2663;53.588;10.010;2023-07-20T16:14:58;22.10;92.80
5280;DHT22;2663;53.588;10.010;2023-07-20T16:17:27;21.90;93.00
5280;DHT22;2663;53.588;10.010;2023-07-20T16:19:54;22.00;93.50
5280;DHT22;2663;53.588;10.010;2023-07-20T16:22:21;22.50;93.10